sensor_id;sensor_type;location;lat;lon;timestamp;temperature;humidity
40287;DHT22;25998;46.604;13.610;2024-01-30T00:01:00;0.50;98.70
40287;DHT22;25998;46.604;13.610;2024-01-30T00:04:11;0.40;99.10
40287;DHT22;25998;46.604;13.610;2024-01-30T00:07:22;0.30;99.10
40287;DHT22;25998;46.604;13.610;2024-01-30T00:10:32;0.30;99.40
40287;DHT22;25998;46.604;13.610;2024-01-30T00:13:43;0.30;99.10
40287;DHT22;25998;46.604;13.610;2024-01-30T00:16:54;0.30;99.30
40287;DHT22;25998;46.604;13.610;2024-01-30T00:20:05;0.20;99.20
40287;DHT22;25998;46.604;13.610;2024-01-30T00:23:17;0.10;99.30
40287;DHT22;25998;46.604;13.610;2024-01-30T00:26:28;0.00;99.50
40287;DHT22;25998;46.604;13.610;2024-01-30T00:29:39;0.00;99.70
40287;DHT22;25998;46.604;13.610;2024-01-30T00:32:50;0.00;99.70
40287;DHT22;25998;46.604;13.610;2024-01-30T00:36:01;0.10;99.90
40287;DHT22;25998;46.604;13.610;2024-01-30T00:39:12;0.10;99.50
40287;DHT22;25998;46.604;13.610;2024-01-30T00:42:23;-0.10;99.60
40287;DHT22;25998;46.604;13.610;2024-01-30T00:45:34;-0.10;99.70
40287;DHT22;25998;46.604;13.610;2024-01-30T00:48:45;-0.20;99.90
40287;DHT22;25998;46.604;13.610;2024-01-30T00:51:56;-0.20;99.90
40287;DHT22;25998;46.604;13.610;2024-01-30T00:55:07;0.10;99.90
40287;DHT22;25998;46.604;13.610;2024-01-30T00:58:18;0.20;99.70
40287;DHT22;25998;46.604;13.610;2024-01-30T01:01:30;0.20;99.70
40287;DHT22;25998;46.604;13.610;2024-01-30T01:04:40;0.30;99.60
40287;DHT22;25998;46.604;13.610;2024-01-30T01:07:52;0.40;99.30
40287;DHT22;25998;46.604;13.610;2024-01-30T01:11:03;0.40;98.90
40287;DHT22;25998;46.604;13.610;2024-01-30T01:14:14;0.20;99.00
40287;DHT22;25998;46.604;13.610;2024-01-30T01:17:25;0.20;99.30
40287;DHT22;25998;46.604;13.610;2024-01-30T01:20:36;0.20;99.20
40287;DHT22;25998;46.604;13.610;2024-01-30T01:23:47;0.00;99.50
40287;DHT22;25998;46.604;13.610;2024-01-30T01:26:58;-0.10;99.70
40287;DHT22;25998;46.604;13.610;2024-01-30T01:30:10;-0.20;99.80
40287;DHT22;25998;46.604;13.610;2024-01-30T01:33:22;-0.20;99.70
40287;DHT22;25998;46.604;13.610;2024-01-30T01:36:33;-0.30;99.90
40287;DHT22;25998;46.604;13.610;2024-01-30T01:39:44;-0.20;99.90
40287;DHT22;25998;46.604;13.610;2024-01-30T01:42:56;-0.20;99.80
40287;DHT22;25998;46.604;13.610;2024-01-30T01:46:08;-0.20;99.90
40287;DHT22;25998;46.604;13.610;2024-01-30T01:49:20;-0.20;99.90
40287;DHT22;25998;46.604;13.610;2024-01-30T01:52:31;-0.30;99.90
40287;DHT22;25998;46.604;13.610;2024-01-30T01:55:43;-0.30;99.90
40287;DHT22;25998;46.604;13.610;2024-01-30T01:58:55;-0.20;99.90
40287;DHT22;25998;46.604;13.610;2024-01-30T02:02:08;-0.20;99.90
40287;DHT22;25998;46.604;13.610;2024-01-30T02:05:21;-0.30;99.90
40287;DHT22;25998;46.604;13.610;2024-01-30T02:08:32;-0.30;99.90
40287;DHT22;25998;46.604;13.610;2024-01-30T02:11:44;-0.20;99.90
40287;DHT22;25998;46.604;13.610;2024-01-30T02:14:55;-0.20;99.90
40287;DHT22;25998;46.604;13.610;2024-01-30T02:18:06;-0.30;99.90
40287;DHT22;25998;46.604;13.610;2024-01-30T02:21:18;-0.40;99.90
40287;DHT22;25998;46.604;13.610;2024-01-30T02:24:29;-0.50;99.90
40287;DHT22;25998;46.604;13.610;2024-01-30T02:27:40;-0.50;99.90
40287;DHT22;25998;46.604;13.610;2024-01-30T02:30:51;-0.50;99.90
40287;DHT22;25998;46.604;13.610;2024-01-30T02:34:02;-0.50;99.90
40287;DHT22;25998;46.604;13.610;2024-01-30T02:37:13;-0.50;99.90
40287;DHT22;25998;46.604;13.610;2024-01-30T02:40:23;-0.60;99.90
40287;DHT22;25998;46.604;13.610;2024-01-30T02:43:34;-0.60;99.90
40287;DHT22;25998;46.604;13.610;2024-01-30T02:46:45;-0.60;99.90
40287;DHT22;25998;46.604;13.610;2024-01-30T02:49:56;-0.60;99.90
40287;DHT22;25998;46.604;13.610;2024-01-30T02:53:07;-0.50;99.90
40287;DHT22;25998;46.604;13.610;2024-01-30T02:56:18;-0.50;99.90
40287;DHT22;25998;46.604;13.610;2024-01-30T02:59:29;-0.50;99.90
40287;DHT22;25998;46.604;13.610;2024-01-30T03:02:39;-0.30;99.90
40287;DHT22;25998;46.604;13.610;2024-01-30T03:05:50;-0.20;99.90
40287;DHT22;25998;46.604;13.610;2024-01-30T03:09:01;-0.20;99.90
40287;DHT22;25998;46.604;13.610;2024-01-30T03:12:12;-0.10;99.90
40287;DHT22;25998;46.604;13.610;2024-01-30T03:15:23;0.00;99.90
40287;DHT22;25998;46.604;13.610;2024-01-30T03:18:34;-0.10;99.50
40287;DHT22;25998;46.604;13.610;2024-01-30T03:21:45;-0.30;99.80
40287;DHT22;25998;46.604;13.610;2024-01-30T03:24:56;-0.30;99.70
40287;DHT22;25998;46.604;13.610;2024-01-30T03:28:07;-0.30;99.80
40287;DHT22;25998;46.604;13.610;2024-01-30T03:31:17;-0.10;99.90
40287;DHT22;25998;46.604;13.610;2024-01-30T03:34:28;-0.20;99.90
40287;DHT22;25998;46.604;13.610;2024-01-30T03:37:39;-0.10;99.90
40287;DHT22;25998;46.604;13.610;2024-01-30T03:40:50;-0.10;99.70
40287;DHT22;25998;46.604;13.610;2024-01-30T03:44:01;0.00;99.90
40287;DHT22;25998;46.604;13.610;2024-01-30T03:47:12;0.00;99.60
40287;DHT22;25998;46.604;13.610;2024-01-30T03:50:23;-0.10;99.50
40287;DHT22;25998;46.604;13.610;2024-01-30T03:53:33;-0.20;99.60
40287;DHT22;25998;46.604;13.610;2024-01-30T03:56:44;-0.30;99.90
40287;DHT22;25998;46.604;13.610;2024-01-30T03:59:55;-0.20;99.90
40287;DHT22;25998;46.604;13.610;2024-01-30T04:03:06;0.00;99.80
40287;DHT22;25998;46.604;13.610;2024-01-30T04:06:17;-0.10;99.40
40287;DHT22;25998;46.604;13.610;2024-01-30T04:09:28;-0.10;99.70
40287;DHT22;25998;46.604;13.610;2024-01-30T04:12:39;-0.20;99.80
40287;DHT22;25998;46.604;13.610;2024-01-30T04:15:50;-0.20;99.70
40287;DHT22;25998;46.604;13.610;2024-01-30T04:19:01;-0.30;99.70
40287;DHT22;25998;46.604;13.610;2024-01-30T04:22:12;-0.50;99.90
40287;DHT22;25998;46.604;13.610;2024-01-30T04:25:23;-0.70;99.90
40287;DHT22;25998;46.604;13.610;2024-01-30T04:28:34;-0.80;99.90
40287;DHT22;25998;46.604;13.610;2024-01-30T04:31:44;-0.80;99.90
40287;DHT22;25998;46.604;13.610;2024-01-30T04:34:55;-0.90;99.90
40287;DHT22;25998;46.604;13.610;2024-01-30T04:38:06;-0.90;99.90
40287;DHT22;25998;46.604;13.610;2024-01-30T04:41:17;-0.90;99.90
40287;DHT22;25998;46.604;13.610;2024-01-30T04:44:28;-0.90;99.90
40287;DHT22;25998;46.604;13.610;2024-01-30T04:47:39;-0.90;99.90
40287;DHT22;25998;46.604;13.610;2024-01-30T04:50:50;-0.90;99.90
40287;DHT22;25998;46.604;13.610;2024-01-30T04:54:01;-0.90;99.90
40287;DHT22;25998;46.604;13.610;2024-01-30T04:57:11;-0.90;99.90
40287;DHT22;25998;46.604;13.610;2024-01-30T05:00:22;-0.70;99.90
40287;DHT22;25998;46.604;13.610;2024-01-30T05:03:34;-0.50;99.90
40287;DHT22;25998;46.604;13.610;2024-01-30T05:06:46;-0.50;99.90
40287;DHT22;25998;46.604;13.610;2024-01-30T05:09:57;-0.50;99.90
40287;DHT22;25998;46.604;13.610;2024-01-30T05:13:08;-0.50;99.90
40287;DHT22;25998;46.604;13.610;2024-01-30T05:16:18;-0.40;99.90
40287;DHT22;25998;46.604;13.610;2024-01-30T05:19:29;-0.40;99.90
40287;DHT22;25998;46.604;13.610;2024-01-30T05:22:40;-0.50;99.80
40287;DHT22;25998;46.604;13.610;2024-01-30T05:25:55;-0.50;99.90
40287;DHT22;25998;46.604;13.610;2024-01-30T05:29:06;-0.50;99.90
40287;DHT22;25998;46.604;13.610;2024-01-30T05:32:18;-0.50;99.90
40287;DHT22;25998;46.604;13.610;2024-01-30T05:35:29;-0.70;99.90
40287;DHT22;25998;46.604;13.610;2024-01-30T05:38:40;-0.80;99.90
40287;DHT22;25998;46.604;13.610;2024-01-30T05:41:51;-0.90;99.90
40287;DHT22;25998;46.604;13.610;2024-01-30T05:45:01;-0.90;99.90
40287;DHT22;25998;46.604;13.610;2024-01-30T05:48:12;-0.90;99.90
40287;DHT22;25998;46.604;13.610;2024-01-30T05:51:23;-0.90;99.90
40287;DHT22;25998;46.604;13.610;2024-01-30T05:54:34;-1.00;99.90
40287;DHT22;25998;46.604;13.610;2024-01-30T05:57:45;-1.00;99.90
40287;DHT22;25998;46.604;13.610;2024-01-30T06:00:56;-1.00;99.90
40287;DHT22;25998;46.604;13.610;2024-01-30T06:04:08;-0.90;99.90
40287;DHT22;25998;46.604;13.610;2024-01-30T06:07:19;-0.90;99.90
40287;DHT22;25998;46.604;13.610;2024-01-30T06:10:29;-0.90;99.90
40287;DHT22;25998;46.604;13.610;2024-01-30T06:13:40;-1.10;99.90
40287;DHT22;25998;46.604;13.610;2024-01-30T06:16:51;-1.20;99.90
40287;DHT22;25998;46.604;13.610;2024-01-30T06:20:02;-1.20;99.90
40287;DHT22;25998;46.604;13.610;2024-01-30T06:23:13;-1.30;99.90
40287;DHT22;25998;46.604;13.610;2024-01-30T06:26:25;-1.30;99.90
40287;DHT22;25998;46.604;13.610;2024-01-30T06:29:35;-1.30;99.90
40287;DHT22;25998;46.604;13.610;2024-01-30T06:32:46;-1.10;99.90
40287;DHT22;25998;46.604;13.610;2024-01-30T06:35:57;-1.00;99.90
40287;DHT22;25998;46.604;13.610;2024-01-30T06:39:08;-1.00;99.90
40287;DHT22;25998;46.604;13.610;2024-01-30T06:42:19;-1.10;99.90
40287;DHT22;25998;46.604;13.610;2024-01-30T06:45:30;-1.20;99.90
40287;DHT22;25998;46.604;13.610;2024-01-30T06:48:41;-1.10;99.90
40287;DHT22;25998;46.604;13.610;2024-01-30T06:51:55;-1.10;99.90
40287;DHT22;25998;46.604;13.610;2024-01-30T06:55:06;-1.20;99.90
40287;DHT22;25998;46.604;13.610;2024-01-30T06:58:17;-1.20;99.90
40287;DHT22;25998;46.604;13.610;2024-01-30T07:01:29;-1.20;99.90
40287;DHT22;25998;46.604;13.610;2024-01-30T07:04:40;-1.00;99.90
40287;DHT22;25998;46.604;13.610;2024-01-30T07:07:52;-0.90;99.90
40287;DHT22;25998;46.604;13.610;2024-01-30T07:11:03;-0.80;99.90
40287;DHT22;25998;46.604;13.610;2024-01-30T07:14:14;-0.90;99.90
40287;DHT22;25998;46.604;13.610;2024-01-30T07:17:25;-0.90;99.90
40287;DHT22;25998;46.604;13.610;2024-01-30T07:20:36;-1.00;99.90
40287;DHT22;25998;46.604;13.610;2024-01-30T07:23:47;-0.90;99.90
40287;DHT22;25998;46.604;13.610;2024-01-30T07:26:57;-0.80;99.90
40287;DHT22;25998;46.604;13.610;2024-01-30T07:30:08;-0.60;99.90
40287;DHT22;25998;46.604;13.610;2024-01-30T07:33:19;-0.50;99.90
40287;DHT22;25998;46.604;13.610;2024-01-30T07:36:30;-0.50;99.90
40287;DHT22;25998;46.604;13.610;2024-01-30T07:39:41;-0.40;99.90
40287;DHT22;25998;46.604;13.610;2024-01-30T07:42:56;-0.50;99.90
40287;DHT22;25998;46.604;13.610;2024-01-30T07:46:07;-0.40;99.90
40287;DHT22;25998;46.604;13.610;2024-01-30T07:49:18;-0.30;99.90
40287;DHT22;25998;46.604;13.610;2024-01-30T07:52:29;-0.40;99.90
40287;DHT22;25998;46.604;13.610;2024-01-30T07:55:39;-0.30;99.90
40287;DHT22;25998;46.604;13.610;2024-01-30T07:59:00;-0.30;99.90
40287;DHT22;25998;46.604;13.610;2024-01-30T08:02:14;-0.30;99.90
40287;DHT22;25998;46.604;13.610;2024-01-30T08:05:25;-0.20;99.90
40287;DHT22;25998;46.604;13.610;2024-01-30T08:08:36;-0.20;99.90
40287;DHT22;25998;46.604;13.610;2024-01-30T08:11:48;-0.20;99.90
40287;DHT22;25998;46.604;13.610;2024-01-30T08:14:59;-0.10;99.90
40287;DHT22;25998;46.604;13.610;2024-01-30T08:18:10;0.00;99.90
40287;DHT22;25998;46.604;13.610;2024-01-30T08:21:21;-0.10;99.90
40287;DHT22;25998;46.604;13.610;2024-01-30T08:24:31;-0.20;99.90
40287;DHT22;25998;46.604;13.610;2024-01-30T08:27:42;-0.30;99.90
40287;DHT22;25998;46.604;13.610;2024-01-30T08:30:53;-0.20;99.90
40287;DHT22;25998;46.604;13.610;2024-01-30T08:34:04;-0.10;99.90
40287;DHT22;25998;46.604;13.610;2024-01-30T08:37:15;-0.10;99.90
40287;DHT22;25998;46.604;13.610;2024-01-30T08:40:27;0.10;99.90
40287;DHT22;25998;46.604;13.610;2024-01-30T08:43:38;0.10;99.90
40287;DHT22;25998;46.604;13.610;2024-01-30T08:46:48;0.10;99.90
40287;DHT22;25998;46.604;13.610;2024-01-30T08:50:00;0.10;99.90
40287;DHT22;25998;46.604;13.610;2024-01-30T08:53:11;0.20;99.90
40287;DHT22;25998;46.604;13.610;2024-01-30T08:56:22;0.20;99.90
40287;DHT22;25998;46.604;13.610;2024-01-30T08:59:33;0.40;99.90
40287;DHT22;25998;46.604;13.610;2024-01-30T09:02:44;0.60;99.90
40287;DHT22;25998;46.604;13.610;2024-01-30T09:05:55;1.00;99.90
40287;DHT22;25998;46.604;13.610;2024-01-30T09:09:06;1.80;99.90
40287;DHT22;25998;46.604;13.610;2024-01-30T09:12:17;2.60;99.50
40287;DHT22;25998;46.604;13.610;2024-01-30T09:15:28;3.30;98.40
40287;DHT22;25998;46.604;13.610;2024-01-30T09:18:38;3.90;97.10
40287;DHT22;25998;46.604;13.610;2024-01-30T09:21:49;4.50;96.10
40287;DHT22;25998;46.604;13.610;2024-01-30T09:25:00;5.00;95.20
40287;DHT22;25998;46.604;13.610;2024-01-30T09:28:11;5.30;95.00
40287;DHT22;25998;46.604;13.610;2024-01-30T09:31:22;5.40;94.10
40287;DHT22;25998;46.604;13.610;2024-01-30T09:34:33;5.50;94.10
40287;DHT22;25998;46.604;13.610;2024-01-30T09:37:44;5.60;94.80
40287;DHT22;25998;46.604;13.610;2024-01-30T09:40:55;5.40;94.50
40287;DHT22;25998;46.604;13.610;2024-01-30T09:44:09;5.40;94.50
40287;DHT22;25998;46.604;13.610;2024-01-30T09:47:21;5.30;94.40
40287;DHT22;25998;46.604;13.610;2024-01-30T09:50:32;5.60;94.20
40287;DHT22;25998;46.604;13.610;2024-01-30T09:53:47;5.80;94.10
40287;DHT22;25998;46.604;13.610;2024-01-30T09:56:58;5.90;94.10
40287;DHT22;25998;46.604;13.610;2024-01-30T10:00:10;6.00;93.70
40287;DHT22;25998;46.604;13.610;2024-01-30T10:03:21;6.10;94.10
40287;DHT22;25998;46.604;13.610;2024-01-30T10:06:32;6.20;92.90
40287;DHT22;25998;46.604;13.610;2024-01-30T10:09:43;6.50;93.30
40287;DHT22;25998;46.604;13.610;2024-01-30T10:12:54;6.50;92.80
40287;DHT22;25998;46.604;13.610;2024-01-30T10:16:06;6.30;93.10
40287;DHT22;25998;46.604;13.610;2024-01-30T10:19:17;6.40;92.90
40287;DHT22;25998;46.604;13.610;2024-01-30T10:22:28;6.70;93.60
40287;DHT22;25998;46.604;13.610;2024-01-30T10:25:39;7.00;92.90
40287;DHT22;25998;46.604;13.610;2024-01-30T10:28:50;7.20;92.10
40287;DHT22;25998;46.604;13.610;2024-01-30T10:32:02;7.10;92.10
40287;DHT22;25998;46.604;13.610;2024-01-30T10:35:13;7.00;92.30
40287;DHT22;25998;46.604;13.610;2024-01-30T10:38:28;7.00;92.10
40287;DHT22;25998;46.604;13.610;2024-01-30T10:41:43;7.40;92.30
40287;DHT22;25998;46.604;13.610;2024-01-30T10:45:07;7.50;90.90
40287;DHT22;25998;46.604;13.610;2024-01-30T10:48:26;7.50;90.80
40287;DHT22;25998;46.604;13.610;2024-01-30T10:51:41;7.50;91.20
40287;DHT22;25998;46.604;13.610;2024-01-30T10:54:54;7.40;90.80
40287;DHT22;25998;46.604;13.610;2024-01-30T10:58:05;7.10;90.70
40287;DHT22;25998;46.604;13.610;2024-01-30T11:01:16;7.10;90.70
40287;DHT22;25998;46.604;13.610;2024-01-30T11:04:30;7.30;90.50
40287;DHT22;25998;46.604;13.610;2024-01-30T11:07:45;7.50;90.00
40287;DHT22;25998;46.604;13.610;2024-01-30T11:10:57;7.50;89.90
40287;DHT22;25998;46.604;13.610;2024-01-30T11:14:09;7.70;90.00
40287;DHT22;25998;46.604;13.610;2024-01-30T11:17:20;7.50;89.40
40287;DHT22;25998;46.604;13.610;2024-01-30T11:20:32;7.70;88.30
40287;DHT22;25998;46.604;13.610;2024-01-30T11:23:43;7.60;87.80
40287;DHT22;25998;46.604;13.610;2024-01-30T11:26:58;7.50;88.30
40287;DHT22;25998;46.604;13.610;2024-01-30T11:30:10;7.50;86.90
40287;DHT22;25998;46.604;13.610;2024-01-30T11:33:29;7.50;87.00
40287;DHT22;25998;46.604;13.610;2024-01-30T11:36:43;7.70;87.50
40287;DHT22;25998;46.604;13.610;2024-01-30T11:39:57;7.80;87.70
40287;DHT22;25998;46.604;13.610;2024-01-30T11:43:09;7.70;85.50
40287;DHT22;25998;46.604;13.610;2024-01-30T11:46:20;7.60;84.50
40287;DHT22;25998;46.604;13.610;2024-01-30T11:49:31;7.70;85.50
40287;DHT22;25998;46.604;13.610;2024-01-30T11:52:42;7.90;86.20
40287;DHT22;25998;46.604;13.610;2024-01-30T11:55:53;8.00;85.50
40287;DHT22;25998;46.604;13.610;2024-01-30T11:59:05;8.20;85.50
40287;DHT22;25998;46.604;13.610;2024-01-30T12:02:16;8.40;84.60
40287;DHT22;25998;46.604;13.610;2024-01-30T12:05:28;8.20;85.30
40287;DHT22;25998;46.604;13.610;2024-01-30T12:08:39;8.10;85.70
40287;DHT22;25998;46.604;13.610;2024-01-30T12:11:50;8.10;85.30
40287;DHT22;25998;46.604;13.610;2024-01-30T12:15:01;8.30;86.50
40287;DHT22;25998;46.604;13.610;2024-01-30T12:18:12;8.40;85.40
40287;DHT22;25998;46.604;13.610;2024-01-30T12:21:23;8.40;85.40
40287;DHT22;25998;46.604;13.610;2024-01-30T12:24:35;8.40;85.20
40287;DHT22;25998;46.604;13.610;2024-01-30T12:27:47;8.30;85.30
40287;DHT22;25998;46.604;13.610;2024-01-30T12:31:02;8.40;87.20
40287;DHT22;25998;46.604;13.610;2024-01-30T12:34:14;8.20;85.80
40287;DHT22;25998;46.604;13.610;2024-01-30T12:37:27;8.20;86.20
40287;DHT22;25998;46.604;13.610;2024-01-30T12:40:40;8.10;86.40
40287;DHT22;25998;46.604;13.610;2024-01-30T12:43:51;8.00;86.20
40287;DHT22;25998;46.604;13.610;2024-01-30T12:47:05;8.10;86.70
40287;DHT22;25998;46.604;13.610;2024-01-30T12:50:16;8.10;87.60
40287;DHT22;25998;46.604;13.610;2024-01-30T12:53:27;7.80;87.20
40287;DHT22;25998;46.604;13.610;2024-01-30T12:56:38;7.90;87.10
40287;DHT22;25998;46.604;13.610;2024-01-30T12:59:50;7.90;86.20
40287;DHT22;25998;46.604;13.610;2024-01-30T13:03:01;7.90;86.90
40287;DHT22;25998;46.604;13.610;2024-01-30T13:06:12;7.90;87.10
40287;DHT22;25998;46.604;13.610;2024-01-30T13:09:23;7.90;86.40
40287;DHT22;25998;46.604;13.610;2024-01-30T13:12:35;8.00;88.80
40287;DHT22;25998;46.604;13.610;2024-01-30T13:15:46;8.00;88.10
40287;DHT22;25998;46.604;13.610;2024-01-30T13:18:57;8.10;89.20
40287;DHT22;25998;46.604;13.610;2024-01-30T13:22:08;8.10;89.60
40287;DHT22;25998;46.604;13.610;2024-01-30T13:25:19;8.00;89.70
40287;DHT22;25998;46.604;13.610;2024-01-30T13:28:30;8.00;89.70
40287;DHT22;25998;46.604;13.610;2024-01-30T13:31:41;8.00;90.00
40287;DHT22;25998;46.604;13.610;2024-01-30T13:34:52;8.00;90.20
40287;DHT22;25998;46.604;13.610;2024-01-30T13:38:03;8.10;89.90
40287;DHT22;25998;46.604;13.610;2024-01-30T13:41:14;8.00;89.20
40287;DHT22;25998;46.604;13.610;2024-01-30T13:44:25;8.10;89.70
40287;DHT22;25998;46.604;13.610;2024-01-30T13:47:36;8.20;90.20
40287;DHT22;25998;46.604;13.610;2024-01-30T13:50:47;8.20;90.10
40287;DHT22;25998;46.604;13.610;2024-01-30T13:54:01;8.20;90.00
40287;DHT22;25998;46.604;13.610;2024-01-30T13:57:12;8.10;90.20
40287;DHT22;25998;46.604;13.610;2024-01-30T14:00:23;8.20;90.00
40287;DHT22;25998;46.604;13.610;2024-01-30T14:03:36;8.30;90.00
40287;DHT22;25998;46.604;13.610;2024-01-30T14:06:47;8.10;88.90
40287;DHT22;25998;46.604;13.610;2024-01-30T14:09:58;8.30;88.60
40287;DHT22;25998;46.604;13.610;2024-01-30T14:13:09;8.40;88.90
40287;DHT22;25998;46.604;13.610;2024-01-30T14:16:20;8.30;88.90
40287;DHT22;25998;46.604;13.610;2024-01-30T14:19:30;8.30;89.00
40287;DHT22;25998;46.604;13.610;2024-01-30T14:22:41;8.70;88.30
40287;DHT22;25998;46.604;13.610;2024-01-30T14:25:53;8.70;87.70
40287;DHT22;25998;46.604;13.610;2024-01-30T14:29:04;8.30;87.30
40287;DHT22;25998;46.604;13.610;2024-01-30T14:32:14;8.20;87.90
40287;DHT22;25998;46.604;13.610;2024-01-30T14:35:25;8.00;87.70
40287;DHT22;25998;46.604;13.610;2024-01-30T14:38:36;8.10;90.50
40287;DHT22;25998;46.604;13.610;2024-01-30T14:41:47;8.00;90.20
40287;DHT22;25998;46.604;13.610;2024-01-30T14:44:58;7.80;90.80
40287;DHT22;25998;46.604;13.610;2024-01-30T14:48:09;8.10;90.70
40287;DHT22;25998;46.604;13.610;2024-01-30T14:51:20;8.00;91.10
40287;DHT22;25998;46.604;13.610;2024-01-30T14:54:31;8.00;90.80
40287;DHT22;25998;46.604;13.610;2024-01-30T14:57:42;7.70;90.60
40287;DHT22;25998;46.604;13.610;2024-01-30T15:00:54;7.40;90.70
40287;DHT22;25998;46.604;13.610;2024-01-30T15:04:05;7.10;91.00
40287;DHT22;25998;46.604;13.610;2024-01-30T15:07:16;6.90;91.50
40287;DHT22;25998;46.604;13.610;2024-01-30T15:10:27;6.70;91.60
40287;DHT22;25998;46.604;13.610;2024-01-30T15:13:39;6.60;91.80
40287;DHT22;25998;46.604;13.610;2024-01-30T15:16:50;6.40;92.10
40287;DHT22;25998;46.604;13.610;2024-01-30T15:20:01;6.20;92.50
40287;DHT22;25998;46.604;13.610;2024-01-30T15:23:12;5.90;92.70
40287;DHT22;25998;46.604;13.610;2024-01-30T15:26:26;5.80;93.40
40287;DHT22;25998;46.604;13.610;2024-01-30T15:29:37;5.70;93.50
40287;DHT22;25998;46.604;13.610;2024-01-30T15:32:48;5.50;94.00
40287;DHT22;25998;46.604;13.610;2024-01-30T15:36:00;5.60;93.50
40287;DHT22;25998;46.604;13.610;2024-01-30T15:39:11;5.50;93.40
40287;DHT22;25998;46.604;13.610;2024-01-30T15:42:24;5.50;93.10
40287;DHT22;25998;46.604;13.610;2024-01-30T15:45:35;5.20;94.00
40287;DHT22;25998;46.604;13.610;2024-01-30T15:48:46;5.10;93.80
40287;DHT22;25998;46.604;13.610;2024-01-30T15:51:58;4.90;94.00
40287;DHT22;25998;46.604;13.610;2024-01-30T15:55:08;4.90;94.00
40287;DHT22;25998;46.604;13.610;2024-01-30T15:58:19;5.00;94.00
40287;DHT22;25998;46.604;13.610;2024-01-30T16:01:31;4.70;94.20
40287;DHT22;25998;46.604;13.610;2024-01-30T16:04:42;4.70;94.30
40287;DHT22;25998;46.604;13.610;2024-01-30T16:07:53;4.60;94.20
40287;DHT22;25998;46.604;13.610;2024-01-30T16:11:04;4.30;94.80
40287;DHT22;25998;46.604;13.610;2024-01-30T16:14:15;4.20;94.90
40287;DHT22;25998;46.604;13.610;2024-01-30T16:17:26;4.30;95.10
40287;DHT22;25998;46.604;13.610;2024-01-30T16:20:37;4.20;94.90
40287;DHT22;25998;46.604;13.610;2024-01-30T16:23:48;4.30;94.70
40287;DHT22;25998;46.604;13.610;2024-01-30T16:26:59;4.20;95.00
40287;DHT22;25998;46.604;13.610;2024-01-30T16:30:10;4.00;95.20
40287;DHT22;25998;46.604;13.610;2024-01-30T16:33:21;4.00;95.40
40287;DHT22;25998;46.604;13.610;2024-01-30T16:36:32;3.80;95.40
40287;DHT22;25998;46.604;13.610;2024-01-30T16:39:43;3.70;95.70
40287;DHT22;25998;46.604;13.610;2024-01-30T16:42:54;3.70;95.70
40287;DHT22;25998;46.604;13.610;2024-01-30T16:46:05;3.50;95.80
40287;DHT22;25998;46.604;13.610;2024-01-30T16:49:16;3.40;96.00
40287;DHT22;25998;46.604;13.610;2024-01-30T16:52:27;3.30;96.20
40287;DHT22;25998;46.604;13.610;2024-01-30T16:55:37;3.30;96.10
40287;DHT22;25998;46.604;13.610;2024-01-30T16:58:48;3.30;96.20
40287;DHT22;25998;46.604;13.610;2024-01-30T17:01:59;3.20;96.50
40287;DHT22;25998;46.604;13.610;2024-01-30T17:05:11;3.10;96.60
40287;DHT22;25998;46.604;13.610;2024-01-30T17:08:22;3.00;96.60
40287;DHT22;25998;46.604;13.610;2024-01-30T17:11:33;3.00;96.90
40287;DHT22;25998;46.604;13.610;2024-01-30T17:14:44;2.90;97.10
40287;DHT22;25998;46.604;13.610;2024-01-30T17:17:57;2.90;96.90
40287;DHT22;25998;46.604;13.610;2024-01-30T17:21:08;2.80;97.10
40287;DHT22;25998;46.604;13.610;2024-01-30T17:24:26;2.60;97.50
40287;DHT22;25998;46.604;13.610;2024-01-30T17:27:37;2.60;97.60
40287;DHT22;25998;46.604;13.610;2024-01-30T17:30:48;2.60;97.60
40287;DHT22;25998;46.604;13.610;2024-01-30T17:33:59;2.60;97.30
40287;DHT22;25998;46.604;13.610;2024-01-30T17:37:10;2.60;97.40
40287;DHT22;25998;46.604;13.610;2024-01-30T17:40:21;2.50;97.60
40287;DHT22;25998;46.604;13.610;2024-01-30T17:43:32;2.40;97.50
40287;DHT22;25998;46.604;13.610;2024-01-30T17:46:43;2.40;97.40
40287;DHT22;25998;46.604;13.610;2024-01-30T17:49:53;2.40;97.50
40287;DHT22;25998;46.604;13.610;2024-01-30T17:53:04;2.40;97.40
40287;DHT22;25998;46.604;13.610;2024-01-30T17:56:16;2.40;97.20
40287;DHT22;25998;46.604;13.610;2024-01-30T17:59:27;2.40;97.30
40287;DHT22;25998;46.604;13.610;2024-01-30T18:02:38;2.40;97.40
40287;DHT22;25998;46.604;13.610;2024-01-30T18:05:50;2.40;97.30
40287;DHT22;25998;46.604;13.610;2024-01-30T18:09:02;2.30;97.50
40287;DHT22;25998;46.604;13.610;2024-01-30T18:12:12;2.30;97.70
40287;DHT22;25998;46.604;13.610;2024-01-30T18:15:25;2.20;97.80
40287;DHT22;25998;46.604;13.610;2024-01-30T18:18:36;2.20;97.50
40287;DHT22;25998;46.604;13.610;2024-01-30T18:21:47;2.10;97.80
40287;DHT22;25998;46.604;13.610;2024-01-30T18:24:58;2.10;98.00
40287;DHT22;25998;46.604;13.610;2024-01-30T18:28:09;2.10;98.00
40287;DHT22;25998;46.604;13.610;2024-01-30T18:31:20;2.00;98.20
40287;DHT22;25998;46.604;13.610;2024-01-30T18:34:31;2.00;98.00
40287;DHT22;25998;46.604;13.610;2024-01-30T18:37:41;2.00;98.10
40287;DHT22;25998;46.604;13.610;2024-01-30T18:40:52;2.00;98.20
40287;DHT22;25998;46.604;13.610;2024-01-30T18:44:03;1.90;98.00
40287;DHT22;25998;46.604;13.610;2024-01-30T18:47:14;1.90;98.00
40287;DHT22;25998;46.604;13.610;2024-01-30T18:50:25;1.90;98.00
40287;DHT22;25998;46.604;13.610;2024-01-30T18:53:36;1.90;98.20
40287;DHT22;25998;46.604;13.610;2024-01-30T18:56:47;1.90;98.20
40287;DHT22;25998;46.604;13.610;2024-01-30T18:59:58;1.80;98.30
40287;DHT22;25998;46.604;13.610;2024-01-30T19:03:09;1.80;98.30
40287;DHT22;25998;46.604;13.610;2024-01-30T19:06:20;1.80;98.30
40287;DHT22;25998;46.604;13.610;2024-01-30T19:09:31;1.70;98.30
40287;DHT22;25998;46.604;13.610;2024-01-30T19:12:42;1.60;98.60
40287;DHT22;25998;46.604;13.610;2024-01-30T19:15:55;1.60;98.50
40287;DHT22;25998;46.604;13.610;2024-01-30T19:19:07;1.70;98.40
40287;DHT22;25998;46.604;13.610;2024-01-30T19:22:17;1.70;98.40
40287;DHT22;25998;46.604;13.610;2024-01-30T19:25:29;1.80;98.40
40287;DHT22;25998;46.604;13.610;2024-01-30T19:28:42;1.90;97.90
40287;DHT22;25998;46.604;13.610;2024-01-30T19:31:53;1.80;98.00
40287;DHT22;25998;46.604;13.610;2024-01-30T19:35:04;1.80;97.90
40287;DHT22;25998;46.604;13.610;2024-01-30T19:38:16;1.70;98.20
40287;DHT22;25998;46.604;13.610;2024-01-30T19:41:27;1.70;98.10
40287;DHT22;25998;46.604;13.610;2024-01-30T19:44:39;1.70;98.30
40287;DHT22;25998;46.604;13.610;2024-01-30T19:47:50;1.70;98.20
40287;DHT22;25998;46.604;13.610;2024-01-30T19:51:03;1.70;98.10
40287;DHT22;25998;46.604;13.610;2024-01-30T19:54:14;1.60;98.10
40287;DHT22;25998;46.604;13.610;2024-01-30T19:57:27;1.60;98.30
40287;DHT22;25998;46.604;13.610;2024-01-30T20:00:38;1.50;98.40